sensor_id;sensor_type;location;lat;lon;timestamp;temperature;humidity
19906;DHT22;10115;50.906;4.438;2024-01-30T00:00:18;11.90;99.90
19906;DHT22;10115;50.906;4.438;2024-01-30T00:02:44;12.00;99.90
19906;DHT22;10115;50.906;4.438;2024-01-30T00:05:11;12.00;99.90
19906;DHT22;10115;50.906;4.438;2024-01-30T00:07:37;12.00;99.90
19906;DHT22;10115;50.906;4.438;2024-01-30T00:10:03;12.00;99.90
19906;DHT22;10115;50.906;4.438;2024-01-30T00:12:28;12.00;99.90
19906;DHT22;10115;50.906;4.438;2024-01-30T00:14:54;12.00;99.90
19906;DHT22;10115;50.906;4.438;2024-01-30T00:17:20;12.00;99.90
19906;DHT22;10115;50.906;4.438;2024-01-30T00:19:46;12.00;99.90
19906;DHT22;10115;50.906;4.438;2024-01-30T00:22:12;12.00;99.90
19906;DHT22;10115;50.906;4.438;2024-01-30T00:24:37;12.00;99.90
19906;DHT22;10115;50.906;4.438;2024-01-30T00:27:03;12.10;99.90
19906;DHT22;10115;50.906;4.438;2024-01-30T00:29:29;12.10;99.90
19906;DHT22;10115;50.906;4.438;2024-01-30T00:31:58;12.00;99.90
19906;DHT22;10115;50.906;4.438;2024-01-30T00:34:24;12.00;99.90
19906;DHT22;10115;50.906;4.438;2024-01-30T00:36:49;12.00;99.90
19906;DHT22;10115;50.906;4.438;2024-01-30T00:39:15;12.00;99.90
19906;DHT22;10115;50.906;4.438;2024-01-30T00:41:41;12.00;99.90
19906;DHT22;10115;50.906;4.438;2024-01-30T00:44:07;12.10;99.90
19906;DHT22;10115;50.906;4.438;2024-01-30T00:46:33;12.00;99.90
19906;DHT22;10115;50.906;4.438;2024-01-30T00:48:58;12.00;99.90
19906;DHT22;10115;50.906;4.438;2024-01-30T00:51:24;12.10;99.90
19906;DHT22;10115;50.906;4.438;2024-01-30T00:53:50;12.10;99.90
19906;DHT22;10115;50.906;4.438;2024-01-30T00:56:16;12.10;99.90
19906;DHT22;10115;50.906;4.438;2024-01-30T00:58:43;12.20;99.90
19906;DHT22;10115;50.906;4.438;2024-01-30T01:01:09;12.20;99.90
19906;DHT22;10115;50.906;4.438;2024-01-30T01:03:35;12.20;99.90
19906;DHT22;10115;50.906;4.438;2024-01-30T01:06:00;12.20;99.90
19906;DHT22;10115;50.906;4.438;2024-01-30T01:08:26;12.20;99.90
19906;DHT22;10115;50.906;4.438;2024-01-30T01:10:52;12.20;99.90
19906;DHT22;10115;50.906;4.438;2024-01-30T01:13:18;12.20;99.90
19906;DHT22;10115;50.906;4.438;2024-01-30T01:15:43;12.10;99.90
19906;DHT22;10115;50.906;4.438;2024-01-30T01:18:09;12.10;99.90
19906;DHT22;10115;50.906;4.438;2024-01-30T01:20:34;12.10;99.90
19906;DHT22;10115;50.906;4.438;2024-01-30T01:23:00;12.10;99.90
19906;DHT22;10115;50.906;4.438;2024-01-30T01:25:26;12.10;99.90
19906;DHT22;10115;50.906;4.438;2024-01-30T01:27:51;12.10;99.90
19906;DHT22;10115;50.906;4.438;2024-01-30T01:30:18;12.20;99.90
19906;DHT22;10115;50.906;4.438;2024-01-30T01:32:50;12.20;99.90
19906;DHT22;10115;50.906;4.438;2024-01-30T01:35:27;12.20;99.90
19906;DHT22;10115;50.906;4.438;2024-01-30T01:37:54;12.30;99.90
19906;DHT22;10115;50.906;4.438;2024-01-30T01:40:25;12.40;99.90
19906;DHT22;10115;50.906;4.438;2024-01-30T01:42:51;12.40;99.90
19906;DHT22;10115;50.906;4.438;2024-01-30T01:45:18;12.40;99.90
19906;DHT22;10115;50.906;4.438;2024-01-30T01:47:47;12.40;99.90
19906;DHT22;10115;50.906;4.438;2024-01-30T01:50:14;12.40;99.90
19906;DHT22;10115;50.906;4.438;2024-01-30T01:52:45;12.40;99.90
19906;DHT22;10115;50.906;4.438;2024-01-30T01:55:12;12.50;99.90
19906;DHT22;10115;50.906;4.438;2024-01-30T01:57:38;12.50;99.90
19906;DHT22;10115;50.906;4.438;2024-01-30T02:00:05;12.40;99.90
19906;DHT22;10115;50.906;4.438;2024-01-30T02:02:35;12.40;99.90
19906;DHT22;10115;50.906;4.438;2024-01-30T02:05:01;12.50;99.90
19906;DHT22;10115;50.906;4.438;2024-01-30T02:07:28;12.50;99.90
19906;DHT22;10115;50.906;4.438;2024-01-30T02:09:54;12.50;99.90
19906;DHT22;10115;50.906;4.438;2024-01-30T02:12:20;12.50;99.90
19906;DHT22;10115;50.906;4.438;2024-01-30T02:14:47;12.50;99.90
19906;DHT22;10115;50.906;4.438;2024-01-30T02:17:13;12.60;99.90
19906;DHT22;10115;50.906;4.438;2024-01-30T02:19:39;12.50;99.90
19906;DHT22;10115;50.906;4.438;2024-01-30T02:22:05;12.50;99.90
19906;DHT22;10115;50.906;4.438;2024-01-30T02:24:31;12.50;99.90
19906;DHT22;10115;50.906;4.438;2024-01-30T02:26:57;12.40;99.90
19906;DHT22;10115;50.906;4.438;2024-01-30T02:29:22;12.40;99.90
19906;DHT22;10115;50.906;4.438;2024-01-30T02:31:48;12.40;99.90
19906;DHT22;10115;50.906;4.438;2024-01-30T02:34:14;12.50;99.90
19906;DHT22;10115;50.906;4.438;2024-01-30T02:36:43;12.50;99.90
19906;DHT22;10115;50.906;4.438;2024-01-30T02:39:09;12.40;99.90
19906;DHT22;10115;50.906;4.438;2024-01-30T02:41:35;12.40;99.90
19906;DHT22;10115;50.906;4.438;2024-01-30T02:44:01;12.40;99.90
19906;DHT22;10115;50.906;4.438;2024-01-30T02:46:27;12.40;99.90
19906;DHT22;10115;50.906;4.438;2024-01-30T02:48:53;12.40;99.90
19906;DHT22;10115;50.906;4.438;2024-01-30T02:51:18;12.50;99.90
19906;DHT22;10115;50.906;4.438;2024-01-30T02:53:44;12.50;99.90
19906;DHT22;10115;50.906;4.438;2024-01-30T02:56:10;12.40;99.90
19906;DHT22;10115;50.906;4.438;2024-01-30T02:58:36;12.40;99.90
19906;DHT22;10115;50.906;4.438;2024-01-30T03:01:02;12.50;99.90
19906;DHT22;10115;50.906;4.438;2024-01-30T03:03:28;12.40;99.90
19906;DHT22;10115;50.906;4.438;2024-01-30T03:05:54;12.30;99.90
19906;DHT22;10115;50.906;4.438;2024-01-30T03:08:20;12.40;99.90
19906;DHT22;10115;50.906;4.438;2024-01-30T03:10:46;12.40;99.90
19906;DHT22;10115;50.906;4.438;2024-01-30T03:13:12;12.40;99.90
19906;DHT22;10115;50.906;4.438;2024-01-30T03:15:38;12.40;99.90
19906;DHT22;10115;50.906;4.438;2024-01-30T03:18:03;12.40;99.90
19906;DHT22;10115;50.906;4.438;2024-01-30T03:20:29;12.40;99.90
19906;DHT22;10115;50.906;4.438;2024-01-30T03:22:55;12.40;99.90
19906;DHT22;10115;50.906;4.438;2024-01-30T03:25:21;12.40;99.90
19906;DHT22;10115;50.906;4.438;2024-01-30T03:27:47;12.40;99.90
19906;DHT22;10115;50.906;4.438;2024-01-30T03:30:13;12.40;99.90
19906;DHT22;10115;50.906;4.438;2024-01-30T03:32:38;12.40;99.90
19906;DHT22;10115;50.906;4.438;2024-01-30T03:35:04;12.40;99.90
19906;DHT22;10115;50.906;4.438;2024-01-30T03:37:30;12.30;99.90
19906;DHT22;10115;50.906;4.438;2024-01-30T03:39:57;12.30;99.90
19906;DHT22;10115;50.906;4.438;2024-01-30T03:42:22;12.40;99.90
19906;DHT22;10115;50.906;4.438;2024-01-30T03:44:48;12.40;99.90
19906;DHT22;10115;50.906;4.438;2024-01-30T03:47:17;12.30;99.90
19906;DHT22;10115;50.906;4.438;2024-01-30T03:49:42;12.30;99.90
19906;DHT22;10115;50.906;4.438;2024-01-30T03:52:08;12.30;99.90
19906;DHT22;10115;50.906;4.438;2024-01-30T03:54:34;12.30;99.90
19906;DHT22;10115;50.906;4.438;2024-01-30T03:56:59;12.30;99.90
19906;DHT22;10115;50.906;4.438;2024-01-30T03:59:25;12.40;99.90
19906;DHT22;10115;50.906;4.438;2024-01-30T04:01:50;12.40;99.90
19906;DHT22;10115;50.906;4.438;2024-01-30T04:04:17;12.50;99.90
19906;DHT22;10115;50.906;4.438;2024-01-30T04:06:44;12.50;99.90
19906;DHT22;10115;50.906;4.438;2024-01-30T04:09:10;12.40;99.90
19906;DHT22;10115;50.906;4.438;2024-01-30T04:11:36;12.40;99.90
19906;DHT22;10115;50.906;4.438;2024-01-30T04:14:02;12.40;99.90
19906;DHT22;10115;50.906;4.438;2024-01-30T04:16:27;12.40;99.90
19906;DHT22;10115;50.906;4.438;2024-01-30T04:18:53;12.30;99.90
19906;DHT22;10115;50.906;4.438;2024-01-30T04:21:21;12.20;99.90
19906;DHT22;10115;50.906;4.438;2024-01-30T04:23:47;12.20;99.90
19906;DHT22;10115;50.906;4.438;2024-01-30T04:26:13;12.20;99.90
19906;DHT22;10115;50.906;4.438;2024-01-30T04:28:41;12.20;99.90
19906;DHT22;10115;50.906;4.438;2024-01-30T04:31:07;12.30;99.90
19906;DHT22;10115;50.906;4.438;2024-01-30T04:33:33;12.30;99.90
19906;DHT22;10115;50.906;4.438;2024-01-30T04:35:58;12.40;99.90
19906;DHT22;10115;50.906;4.438;2024-01-30T04:38:24;12.30;99.90
19906;DHT22;10115;50.906;4.438;2024-01-30T04:40:49;12.20;99.90
19906;DHT22;10115;50.906;4.438;2024-01-30T04:43:15;12.30;99.90
19906;DHT22;10115;50.906;4.438;2024-01-30T04:45:41;12.20;99.90
19906;DHT22;10115;50.906;4.438;2024-01-30T04:48:07;12.30;99.90
19906;DHT22;10115;50.906;4.438;2024-01-30T04:50:33;12.30;99.90
19906;DHT22;10115;50.906;4.438;2024-01-30T04:52:58;12.20;99.90
19906;DHT22;10115;50.906;4.438;2024-01-30T04:55:24;12.20;99.90
19906;DHT22;10115;50.906;4.438;2024-01-30T04:57:50;12.20;99.90
19906;DHT22;10115;50.906;4.438;2024-01-30T05:00:16;12.20;99.90
19906;DHT22;10115;50.906;4.438;2024-01-30T05:02:41;12.10;99.90
19906;DHT22;10115;50.906;4.438;2024-01-30T05:05:07;12.20;99.90
19906;DHT22;10115;50.906;4.438;2024-01-30T05:07:33;12.20;99.90
19906;DHT22;10115;50.906;4.438;2024-01-30T05:10:00;12.20;99.90
19906;DHT22;10115;50.906;4.438;2024-01-30T05:12:26;12.20;99.90
19906;DHT22;10115;50.906;4.438;2024-01-30T05:14:51;12.30;99.90
19906;DHT22;10115;50.906;4.438;2024-01-30T05:17:17;12.20;99.90
19906;DHT22;10115;50.906;4.438;2024-01-30T05:19:43;12.20;99.90
19906;DHT22;10115;50.906;4.438;2024-01-30T05:22:09;12.20;99.90
19906;DHT22;10115;50.906;4.438;2024-01-30T05:24:36;12.10;99.90
19906;DHT22;10115;50.906;4.438;2024-01-30T05:27:02;12.10;99.90
19906;DHT22;10115;50.906;4.438;2024-01-30T05:29:28;12.10;99.90
19906;DHT22;10115;50.906;4.438;2024-01-30T05:31:53;12.10;99.90
19906;DHT22;10115;50.906;4.438;2024-01-30T05:34:19;12.10;99.90
19906;DHT22;10115;50.906;4.438;2024-01-30T05:36:45;12.10;99.90
19906;DHT22;10115;50.906;4.438;2024-01-30T05:39:10;12.00;99.90
19906;DHT22;10115;50.906;4.438;2024-01-30T05:41:36;12.10;99.90
19906;DHT22;10115;50.906;4.438;2024-01-30T05:44:02;12.20;99.90
19906;DHT22;10115;50.906;4.438;2024-01-30T05:46:27;12.20;99.90
19906;DHT22;10115;50.906;4.438;2024-01-30T05:48:53;12.30;99.90
19906;DHT22;10115;50.906;4.438;2024-01-30T05:51:19;12.20;99.90
19906;DHT22;10115;50.906;4.438;2024-01-30T05:53:44;12.20;99.90
19906;DHT22;10115;50.906;4.438;2024-01-30T05:56:10;12.20;99.90
19906;DHT22;10115;50.906;4.438;2024-01-30T05:58:36;12.20;99.90
19906;DHT22;10115;50.906;4.438;2024-01-30T06:01:06;12.10;99.90
19906;DHT22;10115;50.906;4.438;2024-01-30T06:03:32;12.30;99.90
19906;DHT22;10115;50.906;4.438;2024-01-30T06:05:58;12.10;99.90
19906;DHT22;10115;50.906;4.438;2024-01-30T06:08:23;12.00;99.90
19906;DHT22;10115;50.906;4.438;2024-01-30T06:10:49;11.90;99.90
19906;DHT22;10115;50.906;4.438;2024-01-30T06:13:15;11.90;99.90
19906;DHT22;10115;50.906;4.438;2024-01-30T06:15:40;11.80;99.90
19906;DHT22;10115;50.906;4.438;2024-01-30T06:18:06;11.80;99.90
19906;DHT22;10115;50.906;4.438;2024-01-30T06:20:32;11.80;99.90
19906;DHT22;10115;50.906;4.438;2024-01-30T06:22:57;11.80;99.90
19906;DHT22;10115;50.906;4.438;2024-01-30T06:25:23;11.80;99.90
19906;DHT22;10115;50.906;4.438;2024-01-30T06:27:49;11.70;99.90
19906;DHT22;10115;50.906;4.438;2024-01-30T06:30:15;11.70;99.90
19906;DHT22;10115;50.906;4.438;2024-01-30T06:32:40;11.70;99.90
19906;DHT22;10115;50.906;4.438;2024-01-30T06:35:06;11.60;99.90
19906;DHT22;10115;50.906;4.438;2024-01-30T06:37:32;11.60;99.90
19906;DHT22;10115;50.906;4.438;2024-01-30T06:39:58;11.60;99.90
19906;DHT22;10115;50.906;4.438;2024-01-30T06:42:24;11.60;99.90
19906;DHT22;10115;50.906;4.438;2024-01-30T06:44:49;11.60;99.90
19906;DHT22;10115;50.906;4.438;2024-01-30T06:47:15;11.70;99.90
19906;DHT22;10115;50.906;4.438;2024-01-30T06:49:41;11.60;99.90
19906;DHT22;10115;50.906;4.438;2024-01-30T06:52:08;11.70;99.90
19906;DHT22;10115;50.906;4.438;2024-01-30T06:54:33;11.60;99.90
19906;DHT22;10115;50.906;4.438;2024-01-30T06:56:59;11.60;99.90
19906;DHT22;10115;50.906;4.438;2024-01-30T06:59:25;11.60;99.90
19906;DHT22;10115;50.906;4.438;2024-01-30T07:01:51;11.60;99.90
19906;DHT22;10115;50.906;4.438;2024-01-30T07:04:16;11.60;99.90
19906;DHT22;10115;50.906;4.438;2024-01-30T07:06:43;11.60;99.90
19906;DHT22;10115;50.906;4.438;2024-01-30T07:09:09;11.60;99.90
19906;DHT22;10115;50.906;4.438;2024-01-30T07:11:35;11.60;99.90
19906;DHT22;10115;50.906;4.438;2024-01-30T07:14:01;11.60;99.90
19906;DHT22;10115;50.906;4.438;2024-01-30T07:16:29;11.70;99.90
19906;DHT22;10115;50.906;4.438;2024-01-30T07:18:54;11.70;99.90
19906;DHT22;10115;50.906;4.438;2024-01-30T07:21:21;11.80;99.90
19906;DHT22;10115;50.906;4.438;2024-01-30T07:23:50;11.80;99.90
19906;DHT22;10115;50.906;4.438;2024-01-30T07:26:16;11.80;99.90
19906;DHT22;10115;50.906;4.438;2024-01-30T07:28:41;11.80;99.90
19906;DHT22;10115;50.906;4.438;2024-01-30T07:31:08;11.80;99.90
19906;DHT22;10115;50.906;4.438;2024-01-30T07:33:33;11.90;99.90
19906;DHT22;10115;50.906;4.438;2024-01-30T07:35:59;11.90;99.90
19906;DHT22;10115;50.906;4.438;2024-01-30T07:38:25;11.80;99.90
19906;DHT22;10115;50.906;4.438;2024-01-30T07:40:50;11.90;99.90
19906;DHT22;10115;50.906;4.438;2024-01-30T07:43:16;11.90;99.90
19906;DHT22;10115;50.906;4.438;2024-01-30T07:45:42;12.00;99.90
19906;DHT22;10115;50.906;4.438;2024-01-30T07:48:08;12.00;99.90
19906;DHT22;10115;50.906;4.438;2024-01-30T07:50:33;12.00;99.90
19906;DHT22;10115;50.906;4.438;2024-01-30T07:53:00;11.90;99.90
19906;DHT22;10115;50.906;4.438;2024-01-30T07:55:26;11.90;99.90
19906;DHT22;10115;50.906;4.438;2024-01-30T07:57:55;11.80;99.90
19906;DHT22;10115;50.906;4.438;2024-01-30T08:00:21;11.80;99.90
19906;DHT22;10115;50.906;4.438;2024-01-30T08:02:47;11.80;99.90
19906;DHT22;10115;50.906;4.438;2024-01-30T08:05:13;11.70;99.90
19906;DHT22;10115;50.906;4.438;2024-01-30T08:07:41;11.80;99.90
19906;DHT22;10115;50.906;4.438;2024-01-30T08:10:08;11.80;99.90
19906;DHT22;10115;50.906;4.438;2024-01-30T08:12:34;11.80;99.90
19906;DHT22;10115;50.906;4.438;2024-01-30T08:14:59;11.80;99.90
19906;DHT22;10115;50.906;4.438;2024-01-30T08:17:25;11.80;99.90
19906;DHT22;10115;50.906;4.438;2024-01-30T08:19:51;11.70;99.90
19906;DHT22;10115;50.906;4.438;2024-01-30T08:22:16;11.70;99.90
19906;DHT22;10115;50.906;4.438;2024-01-30T08:24:42;11.80;99.90
19906;DHT22;10115;50.906;4.438;2024-01-30T08:27:08;11.90;99.90
19906;DHT22;10115;50.906;4.438;2024-01-30T08:29:35;12.00;99.90
19906;DHT22;10115;50.906;4.438;2024-01-30T08:32:01;12.00;99.90
19906;DHT22;10115;50.906;4.438;2024-01-30T08:34:27;12.00;99.90
19906;DHT22;10115;50.906;4.438;2024-01-30T08:36:53;11.90;99.90
19906;DHT22;10115;50.906;4.438;2024-01-30T08:39:19;12.00;99.90
19906;DHT22;10115;50.906;4.438;2024-01-30T08:41:45;12.00;99.90
19906;DHT22;10115;50.906;4.438;2024-01-30T08:44:11;12.00;99.90
19906;DHT22;10115;50.906;4.438;2024-01-30T08:46:36;12.10;99.90
19906;DHT22;10115;50.906;4.438;2024-01-30T08:49:02;12.20;99.90
19906;DHT22;10115;50.906;4.438;2024-01-30T08:51:30;12.10;99.90
19906;DHT22;10115;50.906;4.438;2024-01-30T08:53:55;12.20;99.90
19906;DHT22;10115;50.906;4.438;2024-01-30T08:56:21;12.30;99.90
19906;DHT22;10115;50.906;4.438;2024-01-30T08:58:47;12.20;99.90
19906;DHT22;10115;50.906;4.438;2024-01-30T09:01:13;12.10;99.90
19906;DHT22;10115;50.906;4.438;2024-01-30T09:03:39;12.10;99.90
19906;DHT22;10115;50.906;4.438;2024-01-30T09:06:10;12.00;99.90
19906;DHT22;10115;50.906;4.438;2024-01-30T09:08:35;12.10;99.90
19906;DHT22;10115;50.906;4.438;2024-01-30T09:11:02;12.10;99.90
19906;DHT22;10115;50.906;4.438;2024-01-30T09:13:27;12.10;99.90
19906;DHT22;10115;50.906;4.438;2024-01-30T09:15:53;12.00;99.90
19906;DHT22;10115;50.906;4.438;2024-01-30T09:18:18;12.10;99.90
19906;DHT22;10115;50.906;4.438;2024-01-30T09:20:44;12.10;99.90
19906;DHT22;10115;50.906;4.438;2024-01-30T09:23:13;12.10;99.90
19906;DHT22;10115;50.906;4.438;2024-01-30T09:25:38;12.10;99.90
19906;DHT22;10115;50.906;4.438;2024-01-30T09:28:06;12.20;99.90
19906;DHT22;10115;50.906;4.438;2024-01-30T09:30:32;12.20;99.90
19906;DHT22;10115;50.906;4.438;2024-01-30T09:32:57;12.10;99.90
19906;DHT22;10115;50.906;4.438;2024-01-30T09:35:23;12.10;99.90
19906;DHT22;10115;50.906;4.438;2024-01-30T09:37:49;12.00;99.90
19906;DHT22;10115;50.906;4.438;2024-01-30T09:40:14;11.90;99.90
19906;DHT22;10115;50.906;4.438;2024-01-30T09:42:46;12.00;99.90
19906;DHT22;10115;50.906;4.438;2024-01-30T09:45:14;11.80;99.90
19906;DHT22;10115;50.906;4.438;2024-01-30T09:47:41;11.70;99.90
19906;DHT22;10115;50.906;4.438;2024-01-30T09:50:11;11.80;99.90
19906;DHT22;10115;50.906;4.438;2024-01-30T09:52:37;11.80;99.90
19906;DHT22;10115;50.906;4.438;2024-01-30T09:55:04;11.70;99.90
19906;DHT22;10115;50.906;4.438;2024-01-30T09:57:30;11.60;99.90
19906;DHT22;10115;50.906;4.438;2024-01-30T09:59:56;11.60;99.90
19906;DHT22;10115;50.906;4.438;2024-01-30T10:02:21;11.60;99.90
19906;DHT22;10115;50.906;4.438;2024-01-30T10:04:51;11.60;99.90
19906;DHT22;10115;50.906;4.438;2024-01-30T10:07:18;11.60;99.90
19906;DHT22;10115;50.906;4.438;2024-01-30T10:09:44;11.60;99.90
19906;DHT22;10115;50.906;4.438;2024-01-30T10:12:10;11.50;99.90
19906;DHT22;10115;50.906;4.438;2024-01-30T10:14:40;11.50;99.90
19906;DHT22;10115;50.906;4.438;2024-01-30T10:17:07;11.50;99.90
19906;DHT22;10115;50.906;4.438;2024-01-30T10:19:33;11.50;99.90
19906;DHT22;10115;50.906;4.438;2024-01-30T10:22:00;11.40;99.90
19906;DHT22;10115;50.906;4.438;2024-01-30T10:24:28;11.40;99.90
19906;DHT22;10115;50.906;4.438;2024-01-30T10:26:57;11.30;99.90
19906;DHT22;10115;50.906;4.438;2024-01-30T10:29:24;11.30;99.90
19906;DHT22;10115;50.906;4.438;2024-01-30T10:32:03;11.20;99.90
19906;DHT22;10115;50.906;4.438;2024-01-30T10:34:30;11.20;99.90
19906;DHT22;10115;50.906;4.438;2024-01-30T10:37:10;11.20;99.90
19906;DHT22;10115;50.906;4.438;2024-01-30T10:39:39;11.20;99.90
19906;DHT22;10115;50.906;4.438;2024-01-30T10:42:07;11.20;99.90
19906;DHT22;10115;50.906;4.438;2024-01-30T10:45:06;11.20;99.90
19906;DHT22;10115;50.906;4.438;2024-01-30T10:47:34;11.20;99.90
19906;DHT22;10115;50.906;4.438;2024-01-30T10:50:02;11.20;99.90
19906;DHT22;10115;50.906;4.438;2024-01-30T10:52:29;11.30;99.90
19906;DHT22;10115;50.906;4.438;2024-01-30T10:54:56;11.30;99.90
19906;DHT22;10115;50.906;4.438;2024-01-30T10:57:23;11.30;99.90
19906;DHT22;10115;50.906;4.438;2024-01-30T10:59:51;11.40;99.90
19906;DHT22;10115;50.906;4.438;2024-01-30T11:02:18;11.40;99.90
19906;DHT22;10115;50.906;4.438;2024-01-30T11:04:45;11.30;99.90
19906;DHT22;10115;50.906;4.438;2024-01-30T11:07:18;11.20;99.90
19906;DHT22;10115;50.906;4.438;2024-01-30T11:09:53;11.20;99.90
19906;DHT22;10115;50.906;4.438;2024-01-30T11:12:23;11.10;99.90
19906;DHT22;10115;50.906;4.438;2024-01-30T11:14:49;11.00;99.90
19906;DHT22;10115;50.906;4.438;2024-01-30T11:17:15;11.00;99.90
19906;DHT22;10115;50.906;4.438;2024-01-30T11:19:41;11.00;99.90
19906;DHT22;10115;50.906;4.438;2024-01-30T11:22:07;10.90;99.90
19906;DHT22;10115;50.906;4.438;2024-01-30T11:24:40;10.80;99.90
19906;DHT22;10115;50.906;4.438;2024-01-30T11:27:10;10.70;99.90
19906;DHT22;10115;50.906;4.438;2024-01-30T11:29:36;10.80;99.90
19906;DHT22;10115;50.906;4.438;2024-01-30T11:32:02;10.80;99.90
19906;DHT22;10115;50.906;4.438;2024-01-30T11:34:28;10.80;99.90
19906;DHT22;10115;50.906;4.438;2024-01-30T11:36:59;10.80;99.90
19906;DHT22;10115;50.906;4.438;2024-01-30T11:39:29;10.80;99.90
19906;DHT22;10115;50.906;4.438;2024-01-30T11:41:55;10.80;99.90
19906;DHT22;10115;50.906;4.438;2024-01-30T11:44:22;10.90;99.90
19906;DHT22;10115;50.906;4.438;2024-01-30T11:46:51;10.90;99.90
19906;DHT22;10115;50.906;4.438;2024-01-30T11:49:18;10.90;99.90
19906;DHT22;10115;50.906;4.438;2024-01-30T11:51:47;10.80;99.90
19906;DHT22;10115;50.906;4.438;2024-01-30T11:54:15;10.80;99.90
19906;DHT22;10115;50.906;4.438;2024-01-30T11:56:42;10.90;99.90
19906;DHT22;10115;50.906;4.438;2024-01-30T11:59:08;11.00;99.90
19906;DHT22;10115;50.906;4.438;2024-01-30T12:01:34;10.90;99.90
19906;DHT22;10115;50.906;4.438;2024-01-30T12:04:00;10.90;99.90
19906;DHT22;10115;50.906;4.438;2024-01-30T12:06:26;10.90;99.90
19906;DHT22;10115;50.906;4.438;2024-01-30T12:08:59;10.90;99.90
19906;DHT22;10115;50.906;4.438;2024-01-30T12:11:26;11.10;99.90
19906;DHT22;10115;50.906;4.438;2024-01-30T12:13:53;10.90;99.90
19906;DHT22;10115;50.906;4.438;2024-01-30T12:16:19;10.90;99.90
19906;DHT22;10115;50.906;4.438;2024-01-30T12:18:45;10.90;99.90
19906;DHT22;10115;50.906;4.438;2024-01-30T12:21:11;10.80;99.90
19906;DHT22;10115;50.906;4.438;2024-01-30T12:23:36;10.90;99.90
19906;DHT22;10115;50.906;4.438;2024-01-30T12:26:03;10.80;99.90
19906;DHT22;10115;50.906;4.438;2024-01-30T12:28:33;10.70;99.90
19906;DHT22;10115;50.906;4.438;2024-01-30T12:31:05;10.60;99.90
19906;DHT22;10115;50.906;4.438;2024-01-30T12:33:31;10.80;99.90
19906;DHT22;10115;50.906;4.438;2024-01-30T12:35:57;10.80;99.90
19906;DHT22;10115;50.906;4.438;2024-01-30T12:38:27;10.80;99.90
19906;DHT22;10115;50.906;4.438;2024-01-30T12:40:55;10.90;99.90
19906;DHT22;10115;50.906;4.438;2024-01-30T12:43:22;11.00;99.90
19906;DHT22;10115;50.906;4.438;2024-01-30T12:45:48;11.10;99.90
19906;DHT22;10115;50.906;4.438;2024-01-30T12:48:14;11.00;99.90
19906;DHT22;10115;50.906;4.438;2024-01-30T12:50:41;11.10;99.90
19906;DHT22;10115;50.906;4.438;2024-01-30T12:53:06;11.10;99.90
19906;DHT22;10115;50.906;4.438;2024-01-30T12:55:32;11.00;99.90
19906;DHT22;10115;50.906;4.438;2024-01-30T12:57:58;11.00;99.90
19906;DHT22;10115;50.906;4.438;2024-01-30T13:00:24;11.00;99.90
19906;DHT22;10115;50.906;4.438;2024-01-30T13:02:49;11.00;99.90
19906;DHT22;10115;50.906;4.438;2024-01-30T13:05:15;10.90;99.90
19906;DHT22;10115;50.906;4.438;2024-01-30T13:07:41;10.70;99.90
19906;DHT22;10115;50.906;4.438;2024-01-30T13:10:06;10.60;99.90
19906;DHT22;10115;50.906;4.438;2024-01-30T13:12:32;10.60;99.90
19906;DHT22;10115;50.906;4.438;2024-01-30T13:14:59;10.50;99.90
19906;DHT22;10115;50.906;4.438;2024-01-30T13:17:27;10.50;99.90
19906;DHT22;10115;50.906;4.438;2024-01-30T13:19:53;10.60;99.90
19906;DHT22;10115;50.906;4.438;2024-01-30T13:22:19;10.50;99.90
19906;DHT22;10115;50.906;4.438;2024-01-30T13:24:47;10.50;99.90
19906;DHT22;10115;50.906;4.438;2024-01-30T13:27:13;10.60;99.90
19906;DHT22;10115;50.906;4.438;2024-01-30T13:29:39;10.60;99.90
19906;DHT22;10115;50.906;4.438;2024-01-30T13:32:05;10.60;99.90
19906;DHT22;10115;50.906;4.438;2024-01-30T13:34:31;10.50;99.90
19906;DHT22;10115;50.906;4.438;2024-01-30T13:36:56;10.50;99.90
19906;DHT22;10115;50.906;4.438;2024-01-30T13:39:22;10.50;99.90
19906;DHT22;10115;50.906;4.438;2024-01-30T13:41:48;10.50;99.90
19906;DHT22;10115;50.906;4.438;2024-01-30T13:44:15;10.60;99.90
19906;DHT22;10115;50.906;4.438;2024-01-30T13:46:42;10.50;99.90
19906;DHT22;10115;50.906;4.438;2024-01-30T13:49:08;10.60;99.90
19906;DHT22;10115;50.906;4.438;2024-01-30T13:51:33;10.60;99.90
19906;DHT22;10115;50.906;4.438;2024-01-30T13:53:59;10.60;99.90
19906;DHT22;10115;50.906;4.438;2024-01-30T13:56:25;10.60;99.90
19906;DHT22;10115;50.906;4.438;2024-01-30T13:58:52;10.60;99.90
19906;DHT22;10115;50.906;4.438;2024-01-30T14:01:18;10.50;99.90
19906;DHT22;10115;50.906;4.438;2024-01-30T14:03:44;10.50;99.90
19906;DHT22;10115;50.906;4.438;2024-01-30T14:06:10;10.50;99.90
19906;DHT22;10115;50.906;4.438;2024-01-30T14:08:36;10.50;99.90
19906;DHT22;10115;50.906;4.438;2024-01-30T14:11:01;10.30;99.90
19906;DHT22;10115;50.906;4.438;2024-01-30T14:13:27;10.20;99.90
19906;DHT22;10115;50.906;4.438;2024-01-30T14:15:53;10.20;99.90
19906;DHT22;10115;50.906;4.438;2024-01-30T14:18:18;10.20;99.90
19906;DHT22;10115;50.906;4.438;2024-01-30T14:20:44;10.10;99.90
19906;DHT22;10115;50.906;4.438;2024-01-30T14:23:10;10.10;99.90
19906;DHT22;10115;50.906;4.438;2024-01-30T14:25:35;10.10;99.90
19906;DHT22;10115;50.906;4.438;2024-01-30T14:28:01;10.10;99.90
19906;DHT22;10115;50.906;4.438;2024-01-30T14:30:27;10.10;99.90
19906;DHT22;10115;50.906;4.438;2024-01-30T14:32:52;10.10;99.90
19906;DHT22;10115;50.906;4.438;2024-01-30T14:35:18;10.10;99.90
19906;DHT22;10115;50.906;4.438;2024-01-30T14:37:45;10.10;99.90
19906;DHT22;10115;50.906;4.438;2024-01-30T14:40:10;10.00;99.90
19906;DHT22;10115;50.906;4.438;2024-01-30T14:42:36;9.90;99.90
19906;DHT22;10115;50.906;4.438;2024-01-30T14:45:03;9.80;99.90
19906;DHT22;10115;50.906;4.438;2024-01-30T14:47:29;9.80;99.90
19906;DHT22;10115;50.906;4.438;2024-01-30T14:49:56;9.70;99.90
19906;DHT22;10115;50.906;4.438;2024-01-30T14:52:22;9.70;99.90
19906;DHT22;10115;50.906;4.438;2024-01-30T14:54:48;9.70;99.90
19906;DHT22;10115;50.906;4.438;2024-01-30T14:57:13;9.70;99.90
19906;DHT22;10115;50.906;4.438;2024-01-30T14:59:40;9.70;99.90
19906;DHT22;10115;50.906;4.438;2024-01-30T15:02:06;9.70;99.90
19906;DHT22;10115;50.906;4.438;2024-01-30T15:04:31;9.70;99.90
19906;DHT22;10115;50.906;4.438;2024-01-30T15:06:57;9.70;99.90
19906;DHT22;10115;50.906;4.438;2024-01-30T15:09:23;9.60;99.90
19906;DHT22;10115;50.906;4.438;2024-01-30T15:11:52;9.60;99.90
19906;DHT22;10115;50.906;4.438;2024-01-30T15:14:17;9.60;99.90
19906;DHT22;10115;50.906;4.438;2024-01-30T15:16:44;9.60;99.90
19906;DHT22;10115;50.906;4.438;2024-01-30T15:19:09;9.60;99.90
19906;DHT22;10115;50.906;4.438;2024-01-30T15:21:35;9.60;99.90
19906;DHT22;10115;50.906;4.438;2024-01-30T15:24:02;9.50;99.90
19906;DHT22;10115;50.906;4.438;2024-01-30T15:26:28;9.50;99.90